This is the latest recevied weather packets stored in our database for station/object WBKK. If no packets are shown the sender has not sent any weather packets the latest 1 day(s).
| Time | Temp. | Humidity | Pressure | Rain* | Wind** | Luminosity | Snow |
|---|---|---|---|---|---|---|---|
| 1836274279 | 31.67° C | 62% | 1010 hPa | - | 1.34 m/s, 0° | - | - |
| 1778047930 | 30° C | 79% | 1006 hPa | - | 2.68 m/s, 330° | - | - |
| 1778046061 | 31.67° C | 74% | 1006 hPa | - | 1.79 m/s, 0° | - | - |
| 1778044329 | 32.78° C | 70% | 1006 hPa | - | 1.79 m/s, 0° | - | - |
| 1778042461 | 31.67° C | 74% | 1007 hPa | - | 2.24 m/s, 310° | - | - |
| 1778040730 | 31.67° C | 70% | 1007 hPa | - | 2.24 m/s, 300° | - | - |
| 1778038861 | 31.67° C | 74% | 1008 hPa | - | 1.79 m/s, 0° | - | - |
| 1778037153 | 31.67° C | 74% | 1008 hPa | - | 1.34 m/s, 0° | - | - |
| 1778035265 | 31.67° C | 70% | 1008 hPa | - | 1.34 m/s, 0° | - | - |
| 1778033528 | 30.56° C | 74% | 1008 hPa | - | 1.34 m/s, 0° | - | - |
| 1778031661 | 30° C | 79% | 1009 hPa | - | 1.34 m/s, 0° | - | - |
| 1778029931 | 30° C | 79% | 1008 hPa | - | 0.89 m/s, 0° | - | - |
| 1778028063 | 28.89° C | 79% | 1008 hPa | - | 0.89 m/s, 0° | - | - |
| 1778026330 | 28.89° C | 79% | 1008 hPa | - | 0.89 m/s, 0° | - | - |
| 1778024461 | 26.67° C | 88% | 1008 hPa | - | 1.79 m/s, 130° | - | - |
| 1778022728 | 25.56° C | 94% | 1007 hPa | - | 1.79 m/s, 130° | - | - |
| 1778020890 | 25° C | 94% | 1007 hPa | - | 1.79 m/s, 110° | - | - |
| 1778019153 | 25° C | 94% | 1007 hPa | - | 1.34 m/s, 120° | - | - |
| 1778017264 | 25° C | 94% | 1007 hPa | - | 1.34 m/s, 110° | - | - |
| 1778015530 | 25° C | 94% | 1006 hPa | - | 1.79 m/s, 120° | - | - |
| 1778013665 | 25° C | 94% | 1006 hPa | - | 1.79 m/s, 110° | - | - |
| 1778011929 | 25° C | 94% | 1006 hPa | - | 1.34 m/s, 100° | - | - |
| 1778010060 | 25.56° C | 88% | 1006 hPa | - | 1.79 m/s, 120° | - | - |
| 1778008328 | 25.56° C | 88% | 1006 hPa | - | 1.79 m/s, 120° | - | - |
| 1778006490 | 25.56° C | 88% | 1006 hPa | - | 2.24 m/s, 100° | - | - |
* Rain since midnight (hover to see other rain measurements)
** Current wind speed in m/s (hover to see current wind gust speed)